sensor_id;sensor_type;location;lat;lon;timestamp;temperature;humidity
24426;DHT22;12611;44.446;26.000;2023-07-16T00:00:37;27.40;69.40
24426;DHT22;12611;44.446;26.000;2023-07-16T00:03:05;27.40;69.60
24426;DHT22;12611;44.446;26.000;2023-07-16T00:05:36;27.30;69.50
24426;DHT22;12611;44.446;26.000;2023-07-16T00:08:05;27.30;69.60
24426;DHT22;12611;44.446;26.000;2023-07-16T00:10:34;27.30;69.60
24426;DHT22;12611;44.446;26.000;2023-07-16T00:13:03;27.30;69.60
24426;DHT22;12611;44.446;26.000;2023-07-16T00:15:32;27.20;69.70
24426;DHT22;12611;44.446;26.000;2023-07-16T00:18:02;27.30;69.80
24426;DHT22;12611;44.446;26.000;2023-07-16T00:20:32;27.20;69.80
24426;DHT22;12611;44.446;26.000;2023-07-16T00:23:01;27.20;69.80
24426;DHT22;12611;44.446;26.000;2023-07-16T00:25:29;27.20;69.80
24426;DHT22;12611;44.446;26.000;2023-07-16T00:27:58;27.20;69.90
24426;DHT22;12611;44.446;26.000;2023-07-16T00:30:26;27.10;69.90
24426;DHT22;12611;44.446;26.000;2023-07-16T00:32:55;27.10;69.90
24426;DHT22;12611;44.446;26.000;2023-07-16T00:35:24;27.10;69.90
24426;DHT22;12611;44.446;26.000;2023-07-16T00:37:53;27.10;70.10
24426;DHT22;12611;44.446;26.000;2023-07-16T00:40:21;27.10;70.10
24426;DHT22;12611;44.446;26.000;2023-07-16T00:42:50;27.00;70.10
24426;DHT22;12611;44.446;26.000;2023-07-16T00:45:18;27.00;70.20
24426;DHT22;12611;44.446;26.000;2023-07-16T00:47:47;27.00;70.20
24426;DHT22;12611;44.446;26.000;2023-07-16T00:50:15;27.00;70.20
24426;DHT22;12611;44.446;26.000;2023-07-16T00:52:45;27.00;70.60
24426;DHT22;12611;44.446;26.000;2023-07-16T00:55:14;26.90;70.60
24426;DHT22;12611;44.446;26.000;2023-07-16T00:57:45;26.90;70.70
24426;DHT22;12611;44.446;26.000;2023-07-16T01:00:14;26.90;70.80
24426;DHT22;12611;44.446;26.000;2023-07-16T01:02:43;26.80;70.90
24426;DHT22;12611;44.446;26.000;2023-07-16T01:05:12;26.80;71.10
24426;DHT22;12611;44.446;26.000;2023-07-16T01:07:53;26.70;71.30
24426;DHT22;12611;44.446;26.000;2023-07-16T01:10:23;26.70;71.40
24426;DHT22;12611;44.446;26.000;2023-07-16T01:12:53;26.70;71.60
24426;DHT22;12611;44.446;26.000;2023-07-16T01:15:22;26.70;71.80
24426;DHT22;12611;44.446;26.000;2023-07-16T01:17:51;26.70;72.30
24426;DHT22;12611;44.446;26.000;2023-07-16T01:20:19;26.60;72.80
24426;DHT22;12611;44.446;26.000;2023-07-16T01:23:11;26.50;73.30
24426;DHT22;12611;44.446;26.000;2023-07-16T01:26:01;26.50;74.30
24426;DHT22;12611;44.446;26.000;2023-07-16T01:32:00;26.40;75.00
24426;DHT22;12611;44.446;26.000;2023-07-16T01:34:30;26.40;75.30
24426;DHT22;12611;44.446;26.000;2023-07-16T01:37:00;26.30;75.20
24426;DHT22;12611;44.446;26.000;2023-07-16T01:39:30;26.30;75.60
24426;DHT22;12611;44.446;26.000;2023-07-16T01:41:59;26.30;76.20
24426;DHT22;12611;44.446;26.000;2023-07-16T01:44:28;26.30;76.40
24426;DHT22;12611;44.446;26.000;2023-07-16T01:47:09;26.20;76.60
24426;DHT22;12611;44.446;26.000;2023-07-16T01:49:38;26.10;77.30
24426;DHT22;12611;44.446;26.000;2023-07-16T01:52:09;26.10;77.40
24426;DHT22;12611;44.446;26.000;2023-07-16T01:54:38;26.10;77.30
24426;DHT22;12611;44.446;26.000;2023-07-16T01:57:06;26.10;77.20
24426;DHT22;12611;44.446;26.000;2023-07-16T01:59:35;26.00;77.40
24426;DHT22;12611;44.446;26.000;2023-07-16T02:02:04;26.00;78.10
24426;DHT22;12611;44.446;26.000;2023-07-16T02:04:34;26.00;78.80
24426;DHT22;12611;44.446;26.000;2023-07-16T02:07:02;25.90;78.80
24426;DHT22;12611;44.446;26.000;2023-07-16T02:09:31;25.90;78.90
24426;DHT22;12611;44.446;26.000;2023-07-16T02:11:59;25.80;78.80
24426;DHT22;12611;44.446;26.000;2023-07-16T02:14:28;25.80;79.20
24426;DHT22;12611;44.446;26.000;2023-07-16T02:16:56;25.80;79.20
24426;DHT22;12611;44.446;26.000;2023-07-16T02:19:24;25.80;78.80
24426;DHT22;12611;44.446;26.000;2023-07-16T02:21:55;25.80;78.80
24426;DHT22;12611;44.446;26.000;2023-07-16T02:24:23;25.70;80.10
24426;DHT22;12611;44.446;26.000;2023-07-16T02:26:52;25.70;80.10
24426;DHT22;12611;44.446;26.000;2023-07-16T02:29:20;25.70;80.10
24426;DHT22;12611;44.446;26.000;2023-07-16T02:31:49;25.70;79.90
24426;DHT22;12611;44.446;26.000;2023-07-16T02:34:18;25.60;80.40
24426;DHT22;12611;44.446;26.000;2023-07-16T02:36:46;25.60;80.30
24426;DHT22;12611;44.446;26.000;2023-07-16T02:39:16;25.60;80.30
24426;DHT22;12611;44.446;26.000;2023-07-16T02:41:44;25.50;80.20
24426;DHT22;12611;44.446;26.000;2023-07-16T02:44:13;25.60;80.20
24426;DHT22;12611;44.446;26.000;2023-07-16T02:46:41;25.50;80.50
24426;DHT22;12611;44.446;26.000;2023-07-16T02:49:11;25.50;80.60
24426;DHT22;12611;44.446;26.000;2023-07-16T02:51:39;25.40;81.30
24426;DHT22;12611;44.446;26.000;2023-07-16T02:54:08;25.40;81.30
24426;DHT22;12611;44.446;26.000;2023-07-16T02:56:38;25.40;81.70
24426;DHT22;12611;44.446;26.000;2023-07-16T02:59:06;25.40;81.90
24426;DHT22;12611;44.446;26.000;2023-07-16T03:01:34;25.30;81.60
24426;DHT22;12611;44.446;26.000;2023-07-16T03:04:03;25.40;81.80
24426;DHT22;12611;44.446;26.000;2023-07-16T03:06:31;25.30;81.60
24426;DHT22;12611;44.446;26.000;2023-07-16T03:09:00;25.30;81.80
24426;DHT22;12611;44.446;26.000;2023-07-16T03:11:28;25.30;82.10
24426;DHT22;12611;44.446;26.000;2023-07-16T03:13:58;25.30;82.30
24426;DHT22;12611;44.446;26.000;2023-07-16T03:16:27;25.30;82.20
24426;DHT22;12611;44.446;26.000;2023-07-16T03:18:55;25.30;82.30
24426;DHT22;12611;44.446;26.000;2023-07-16T03:21:24;25.20;82.10
24426;DHT22;12611;44.446;26.000;2023-07-16T03:23:54;25.30;82.20
24426;DHT22;12611;44.446;26.000;2023-07-16T03:26:22;25.30;82.20
24426;DHT22;12611;44.446;26.000;2023-07-16T03:28:51;25.20;82.40
24426;DHT22;12611;44.446;26.000;2023-07-16T03:31:21;25.30;82.40
24426;DHT22;12611;44.446;26.000;2023-07-16T03:33:49;25.30;82.30
24426;DHT22;12611;44.446;26.000;2023-07-16T03:36:18;25.30;82.70
24426;DHT22;12611;44.446;26.000;2023-07-16T03:38:47;25.30;82.90
24426;DHT22;12611;44.446;26.000;2023-07-16T03:41:15;25.30;82.70
24426;DHT22;12611;44.446;26.000;2023-07-16T03:43:43;25.30;82.90
24426;DHT22;12611;44.446;26.000;2023-07-16T03:46:12;25.30;82.90
24426;DHT22;12611;44.446;26.000;2023-07-16T03:48:42;25.40;82.60
24426;DHT22;12611;44.446;26.000;2023-07-16T03:51:11;25.40;82.60
24426;DHT22;12611;44.446;26.000;2023-07-16T03:53:39;25.40;82.50
24426;DHT22;12611;44.446;26.000;2023-07-16T03:56:07;25.40;82.50
24426;DHT22;12611;44.446;26.000;2023-07-16T03:58:36;25.40;82.30
24426;DHT22;12611;44.446;26.000;2023-07-16T04:01:04;25.50;82.10
24426;DHT22;12611;44.446;26.000;2023-07-16T04:03:33;25.50;82.10
24426;DHT22;12611;44.446;26.000;2023-07-16T04:06:04;25.50;81.80
24426;DHT22;12611;44.446;26.000;2023-07-16T04:08:32;25.60;81.70
24426;DHT22;12611;44.446;26.000;2023-07-16T04:11:01;25.60;81.60
24426;DHT22;12611;44.446;26.000;2023-07-16T04:13:30;25.70;81.60
24426;DHT22;12611;44.446;26.000;2023-07-16T04:15:59;25.70;81.40
24426;DHT22;12611;44.446;26.000;2023-07-16T04:18:27;25.80;81.40
24426;DHT22;12611;44.446;26.000;2023-07-16T04:20:56;25.80;82.20
24426;DHT22;12611;44.446;26.000;2023-07-16T04:23:26;25.80;81.20
24426;DHT22;12611;44.446;26.000;2023-07-16T04:25:55;25.90;81.10
24426;DHT22;12611;44.446;26.000;2023-07-16T04:28:24;25.90;81.10
24426;DHT22;12611;44.446;26.000;2023-07-16T04:30:52;25.90;81.00
24426;DHT22;12611;44.446;26.000;2023-07-16T04:33:21;26.00;81.00
24426;DHT22;12611;44.446;26.000;2023-07-16T04:35:49;26.00;81.00
24426;DHT22;12611;44.446;26.000;2023-07-16T04:38:18;26.10;80.90
24426;DHT22;12611;44.446;26.000;2023-07-16T04:40:48;26.10;80.70
24426;DHT22;12611;44.446;26.000;2023-07-16T04:43:16;26.20;80.70
24426;DHT22;12611;44.446;26.000;2023-07-16T04:45:44;26.20;80.40
24426;DHT22;12611;44.446;26.000;2023-07-16T04:48:14;26.30;80.30
24426;DHT22;12611;44.446;26.000;2023-07-16T04:50:42;26.30;80.30
24426;DHT22;12611;44.446;26.000;2023-07-16T04:53:11;26.40;80.20
24426;DHT22;12611;44.446;26.000;2023-07-16T04:55:39;26.40;80.20
24426;DHT22;12611;44.446;26.000;2023-07-16T04:58:10;26.40;80.40
24426;DHT22;12611;44.446;26.000;2023-07-16T05:00:39;26.50;80.30
24426;DHT22;12611;44.446;26.000;2023-07-16T05:03:08;26.50;80.30
24426;DHT22;12611;44.446;26.000;2023-07-16T05:05:36;26.50;80.00
24426;DHT22;12611;44.446;26.000;2023-07-16T05:08:05;26.60;79.90
24426;DHT22;12611;44.446;26.000;2023-07-16T05:10:33;26.60;79.70
24426;DHT22;12611;44.446;26.000;2023-07-16T05:13:02;26.70;79.70
24426;DHT22;12611;44.446;26.000;2023-07-16T05:15:33;26.70;79.40
24426;DHT22;12611;44.446;26.000;2023-07-16T05:18:02;26.80;79.10
24426;DHT22;12611;44.446;26.000;2023-07-16T05:20:30;26.80;79.00
24426;DHT22;12611;44.446;26.000;2023-07-16T05:22:59;26.90;79.00
24426;DHT22;12611;44.446;26.000;2023-07-16T05:25:28;27.00;78.90
24426;DHT22;12611;44.446;26.000;2023-07-16T05:27:58;27.00;78.70
24426;DHT22;12611;44.446;26.000;2023-07-16T05:30:27;27.00;78.80
24426;DHT22;12611;44.446;26.000;2023-07-16T05:32:57;27.10;78.80
24426;DHT22;12611;44.446;26.000;2023-07-16T05:35:25;27.20;78.80
24426;DHT22;12611;44.446;26.000;2023-07-16T05:37:54;27.20;78.70
24426;DHT22;12611;44.446;26.000;2023-07-16T05:40:22;27.20;78.30
24426;DHT22;12611;44.446;26.000;2023-07-16T05:42:51;27.30;78.30
24426;DHT22;12611;44.446;26.000;2023-07-16T05:45:19;27.30;78.30
24426;DHT22;12611;44.446;26.000;2023-07-16T05:47:48;27.30;77.70
24426;DHT22;12611;44.446;26.000;2023-07-16T05:50:18;27.50;77.60
24426;DHT22;12611;44.446;26.000;2023-07-16T05:52:46;27.50;77.40
24426;DHT22;12611;44.446;26.000;2023-07-16T05:55:16;27.50;77.30
24426;DHT22;12611;44.446;26.000;2023-07-16T05:57:44;27.60;77.40
24426;DHT22;12611;44.446;26.000;2023-07-16T06:00:15;27.70;77.30
24426;DHT22;12611;44.446;26.000;2023-07-16T06:02:44;27.70;76.90
24426;DHT22;12611;44.446;26.000;2023-07-16T06:05:12;27.80;76.70
24426;DHT22;12611;44.446;26.000;2023-07-16T06:07:42;27.80;76.60
24426;DHT22;12611;44.446;26.000;2023-07-16T06:10:11;27.90;76.50
24426;DHT22;12611;44.446;26.000;2023-07-16T06:12:39;27.90;76.30
24426;DHT22;12611;44.446;26.000;2023-07-16T06:15:08;28.00;76.20
24426;DHT22;12611;44.446;26.000;2023-07-16T06:17:37;28.00;75.70
24426;DHT22;12611;44.446;26.000;2023-07-16T06:20:07;28.10;75.40
24426;DHT22;12611;44.446;26.000;2023-07-16T06:22:36;28.20;75.30
24426;DHT22;12611;44.446;26.000;2023-07-16T06:25:08;28.20;74.60
24426;DHT22;12611;44.446;26.000;2023-07-16T06:27:37;28.30;74.60
24426;DHT22;12611;44.446;26.000;2023-07-16T06:30:07;28.40;74.60
24426;DHT22;12611;44.446;26.000;2023-07-16T06:32:35;28.40;74.50
24426;DHT22;12611;44.446;26.000;2023-07-16T06:35:04;28.50;74.60
24426;DHT22;12611;44.446;26.000;2023-07-16T06:37:32;28.50;74.40
24426;DHT22;12611;44.446;26.000;2023-07-16T06:40:01;28.60;74.40
24426;DHT22;12611;44.446;26.000;2023-07-16T06:42:32;28.70;74.30
24426;DHT22;12611;44.446;26.000;2023-07-16T06:45:00;28.80;74.40
24426;DHT22;12611;44.446;26.000;2023-07-16T06:47:28;28.80;75.00
24426;DHT22;12611;44.446;26.000;2023-07-16T06:49:57;28.90;73.70
24426;DHT22;12611;44.446;26.000;2023-07-16T06:52:25;28.90;73.60
24426;DHT22;12611;44.446;26.000;2023-07-16T06:54:54;28.90;73.60
24426;DHT22;12611;44.446;26.000;2023-07-16T06:57:23;29.00;73.50
24426;DHT22;12611;44.446;26.000;2023-07-16T06:59:53;29.10;73.00
24426;DHT22;12611;44.446;26.000;2023-07-16T07:02:21;29.20;73.20
24426;DHT22;12611;44.446;26.000;2023-07-16T07:04:50;29.30;73.30
24426;DHT22;12611;44.446;26.000;2023-07-16T07:07:19;29.30;72.80
24426;DHT22;12611;44.446;26.000;2023-07-16T07:09:47;29.30;72.60
24426;DHT22;12611;44.446;26.000;2023-07-16T07:12:16;29.40;72.70
24426;DHT22;12611;44.446;26.000;2023-07-16T07:14:46;29.50;72.30
24426;DHT22;12611;44.446;26.000;2023-07-16T07:17:17;29.50;72.10
24426;DHT22;12611;44.446;26.000;2023-07-16T07:19:45;29.60;71.90
24426;DHT22;12611;44.446;26.000;2023-07-16T07:22:13;29.60;71.70
24426;DHT22;12611;44.446;26.000;2023-07-16T07:24:42;29.60;71.30
24426;DHT22;12611;44.446;26.000;2023-07-16T07:27:11;29.70;71.10
24426;DHT22;12611;44.446;26.000;2023-07-16T07:29:40;29.70;71.10
24426;DHT22;12611;44.446;26.000;2023-07-16T07:32:08;29.80;71.30
24426;DHT22;12611;44.446;26.000;2023-07-16T07:34:38;29.80;70.70
24426;DHT22;12611;44.446;26.000;2023-07-16T07:37:06;29.80;70.20
24426;DHT22;12611;44.446;26.000;2023-07-16T07:39:35;29.90;70.50
24426;DHT22;12611;44.446;26.000;2023-07-16T07:42:05;30.00;70.10
24426;DHT22;12611;44.446;26.000;2023-07-16T07:44:33;30.00;70.20
24426;DHT22;12611;44.446;26.000;2023-07-16T07:47:02;30.10;70.30
24426;DHT22;12611;44.446;26.000;2023-07-16T07:49:32;30.10;70.20
24426;DHT22;12611;44.446;26.000;2023-07-16T07:52:03;30.10;69.90
24426;DHT22;12611;44.446;26.000;2023-07-16T07:54:32;30.20;69.90
24426;DHT22;12611;44.446;26.000;2023-07-16T07:57:01;30.20;69.90
24426;DHT22;12611;44.446;26.000;2023-07-16T07:59:32;30.30;69.10
24426;DHT22;12611;44.446;26.000;2023-07-16T08:02:02;30.30;68.60
24426;DHT22;12611;44.446;26.000;2023-07-16T08:04:30;30.30;68.10
24426;DHT22;12611;44.446;26.000;2023-07-16T08:06:59;30.30;68.00
24426;DHT22;12611;44.446;26.000;2023-07-16T08:09:30;30.40;68.00
24426;DHT22;12611;44.446;26.000;2023-07-16T08:11:59;30.40;68.30
24426;DHT22;12611;44.446;26.000;2023-07-16T08:14:27;30.50;68.30
24426;DHT22;12611;44.446;26.000;2023-07-16T08:16:56;30.60;68.50
24426;DHT22;12611;44.446;26.000;2023-07-16T08:19:24;30.60;68.70
24426;DHT22;12611;44.446;26.000;2023-07-16T08:21:53;30.70;68.80
24426;DHT22;12611;44.446;26.000;2023-07-16T08:24:21;30.70;68.70
24426;DHT22;12611;44.446;26.000;2023-07-16T08:26:51;30.80;68.60
24426;DHT22;12611;44.446;26.000;2023-07-16T08:29:20;30.80;68.30
24426;DHT22;12611;44.446;26.000;2023-07-16T08:31:48;30.90;68.00
24426;DHT22;12611;44.446;26.000;2023-07-16T08:34:16;30.90;68.10
24426;DHT22;12611;44.446;26.000;2023-07-16T08:36:45;31.00;68.20
24426;DHT22;12611;44.446;26.000;2023-07-16T08:39:13;31.10;68.10
24426;DHT22;12611;44.446;26.000;2023-07-16T08:41:44;31.10;68.10
24426;DHT22;12611;44.446;26.000;2023-07-16T08:44:15;31.20;68.10
24426;DHT22;12611;44.446;26.000;2023-07-16T08:46:44;31.20;67.50
24426;DHT22;12611;44.446;26.000;2023-07-16T08:49:13;31.20;67.30
24426;DHT22;12611;44.446;26.000;2023-07-16T08:51:42;31.20;66.70
24426;DHT22;12611;44.446;26.000;2023-07-16T08:54:11;31.30;66.60
24426;DHT22;12611;44.446;26.000;2023-07-16T08:56:43;31.40;66.50
24426;DHT22;12611;44.446;26.000;2023-07-16T08:59:11;31.40;66.70
24426;DHT22;12611;44.446;26.000;2023-07-16T09:01:41;31.50;66.90
24426;DHT22;12611;44.446;26.000;2023-07-16T09:04:10;31.50;65.80
24426;DHT22;12611;44.446;26.000;2023-07-16T09:06:38;31.50;64.70
24426;DHT22;12611;44.446;26.000;2023-07-16T09:09:07;31.60;65.30
24426;DHT22;12611;44.446;26.000;2023-07-16T09:11:35;31.60;65.30
24426;DHT22;12611;44.446;26.000;2023-07-16T09:14:04;31.70;64.60
24426;DHT22;12611;44.446;26.000;2023-07-16T09:16:33;31.70;64.10
24426;DHT22;12611;44.446;26.000;2023-07-16T09:19:09;31.70;62.90
24426;DHT22;12611;44.446;26.000;2023-07-16T09:21:40;31.70;63.00
24426;DHT22;12611;44.446;26.000;2023-07-16T09:24:09;31.70;63.50
24426;DHT22;12611;44.446;26.000;2023-07-16T09:26:37;31.80;63.90
24426;DHT22;12611;44.446;26.000;2023-07-16T09:29:06;31.90;64.20
24426;DHT22;12611;44.446;26.000;2023-07-16T09:31:35;32.00;64.40
24426;DHT22;12611;44.446;26.000;2023-07-16T09:34:03;32.00;64.30
24426;DHT22;12611;44.446;26.000;2023-07-16T09:36:34;32.10;64.20
24426;DHT22;12611;44.446;26.000;2023-07-16T09:39:02;32.20;64.20
24426;DHT22;12611;44.446;26.000;2023-07-16T09:41:31;32.20;63.60
24426;DHT22;12611;44.446;26.000;2023-07-16T09:43:59;32.30;64.10
24426;DHT22;12611;44.446;26.000;2023-07-16T09:46:28;32.40;62.10
24426;DHT22;12611;44.446;26.000;2023-07-16T09:48:56;32.40;61.30
24426;DHT22;12611;44.446;26.000;2023-07-16T09:51:25;32.40;60.70
24426;DHT22;12611;44.446;26.000;2023-07-16T09:53:56;32.50;61.10
24426;DHT22;12611;44.446;26.000;2023-07-16T09:56:26;32.60;60.80
24426;DHT22;12611;44.446;26.000;2023-07-16T09:58:58;32.60;60.90
24426;DHT22;12611;44.446;26.000;2023-07-16T10:01:28;32.70;60.70
24426;DHT22;12611;44.446;26.000;2023-07-16T10:03:58;32.70;60.60
24426;DHT22;12611;44.446;26.000;2023-07-16T10:06:26;32.80;60.00
24426;DHT22;12611;44.446;26.000;2023-07-16T10:08:56;32.90;59.80
24426;DHT22;12611;44.446;26.000;2023-07-16T10:11:25;32.90;59.70
24426;DHT22;12611;44.446;26.000;2023-07-16T10:13:53;32.90;58.70
24426;DHT22;12611;44.446;26.000;2023-07-16T10:16:22;32.90;59.10
24426;DHT22;12611;44.446;26.000;2023-07-16T10:18:52;32.90;57.60
24426;DHT22;12611;44.446;26.000;2023-07-16T10:21:24;32.90;57.20
24426;DHT22;12611;44.446;26.000;2023-07-16T10:23:58;33.00;57.70
24426;DHT22;12611;44.446;26.000;2023-07-16T10:26:28;33.10;57.80
24426;DHT22;12611;44.446;26.000;2023-07-16T10:28:56;33.10;58.00
24426;DHT22;12611;44.446;26.000;2023-07-16T10:31:25;33.20;58.00
24426;DHT22;12611;44.446;26.000;2023-07-16T10:34:01;33.20;57.70
24426;DHT22;12611;44.446;26.000;2023-07-16T10:36:37;33.30;57.80
24426;DHT22;12611;44.446;26.000;2023-07-16T10:39:07;33.30;57.50
24426;DHT22;12611;44.446;26.000;2023-07-16T10:41:35;33.40;57.60
24426;DHT22;12611;44.446;26.000;2023-07-16T10:44:04;33.40;56.80
24426;DHT22;12611;44.446;26.000;2023-07-16T10:46:33;33.50;56.30
24426;DHT22;12611;44.446;26.000;2023-07-16T10:49:02;33.60;56.70
24426;DHT22;12611;44.446;26.000;2023-07-16T10:51:32;33.60;56.20
24426;DHT22;12611;44.446;26.000;2023-07-16T10:54:00;33.60;56.40
24426;DHT22;12611;44.446;26.000;2023-07-16T10:56:35;33.70;56.10
24426;DHT22;12611;44.446;26.000;2023-07-16T10:59:04;33.80;55.60
24426;DHT22;12611;44.446;26.000;2023-07-16T11:01:34;33.80;55.90
24426;DHT22;12611;44.446;26.000;2023-07-16T11:04:07;33.90;55.70
24426;DHT22;12611;44.446;26.000;2023-07-16T11:06:35;33.90;55.60
24426;DHT22;12611;44.446;26.000;2023-07-16T11:09:07;34.00;55.60
24426;DHT22;12611;44.446;26.000;2023-07-16T11:11:37;34.10;55.60
24426;DHT22;12611;44.446;26.000;2023-07-16T11:14:08;34.10;55.60
24426;DHT22;12611;44.446;26.000;2023-07-16T11:16:37;34.20;55.40
24426;DHT22;12611;44.446;26.000;2023-07-16T11:19:06;34.20;55.10
24426;DHT22;12611;44.446;26.000;2023-07-16T11:21:35;34.30;54.90
24426;DHT22;12611;44.446;26.000;2023-07-16T11:24:09;34.30;54.50
24426;DHT22;12611;44.446;26.000;2023-07-16T11:26:39;34.30;53.00
24426;DHT22;12611;44.446;26.000;2023-07-16T11:29:14;34.40;53.10
24426;DHT22;12611;44.446;26.000;2023-07-16T11:31:43;34.40;52.40
24426;DHT22;12611;44.446;26.000;2023-07-16T11:34:13;34.40;52.30
24426;DHT22;12611;44.446;26.000;2023-07-16T11:36:41;34.50;52.60
24426;DHT22;12611;44.446;26.000;2023-07-16T11:39:11;34.60;52.90
24426;DHT22;12611;44.446;26.000;2023-07-16T11:41:41;34.60;52.80
24426;DHT22;12611;44.446;26.000;2023-07-16T11:44:10;34.70;53.10
24426;DHT22;12611;44.446;26.000;2023-07-16T11:46:40;34.70;53.30
24426;DHT22;12611;44.446;26.000;2023-07-16T11:49:08;34.70;52.00
24426;DHT22;12611;44.446;26.000;2023-07-16T11:51:37;34.70;52.50
24426;DHT22;12611;44.446;26.000;2023-07-16T11:54:05;34.70;52.50
24426;DHT22;12611;44.446;26.000;2023-07-16T11:56:33;34.80;51.90
24426;DHT22;12611;44.446;26.000;2023-07-16T11:59:03;34.70;51.70
24426;DHT22;12611;44.446;26.000;2023-07-16T12:01:32;34.70;51.90
24426;DHT22;12611;44.446;26.000;2023-07-16T12:04:01;34.70;51.40
24426;DHT22;12611;44.446;26.000;2023-07-16T12:06:29;34.70;50.70
24426;DHT22;12611;44.446;26.000;2023-07-16T12:08:57;34.80;50.50
24426;DHT22;12611;44.446;26.000;2023-07-16T12:11:26;34.80;51.10
24426;DHT22;12611;44.446;26.000;2023-07-16T12:13:55;34.90;51.40
24426;DHT22;12611;44.446;26.000;2023-07-16T12:16:25;34.90;50.20
24426;DHT22;12611;44.446;26.000;2023-07-16T12:18:54;34.80;50.20
24426;DHT22;12611;44.446;26.000;2023-07-16T12:21:23;34.80;50.40
24426;DHT22;12611;44.446;26.000;2023-07-16T12:23:54;34.80;50.60
24426;DHT22;12611;44.446;26.000;2023-07-16T12:26:22;34.80;50.60
24426;DHT22;12611;44.446;26.000;2023-07-16T12:28:51;34.90;49.90
24426;DHT22;12611;44.446;26.000;2023-07-16T12:31:20;34.90;50.20
24426;DHT22;12611;44.446;26.000;2023-07-16T12:33:50;35.00;50.30
24426;DHT22;12611;44.446;26.000;2023-07-16T12:36:20;35.00;49.70
24426;DHT22;12611;44.446;26.000;2023-07-16T12:38:48;35.00;48.10
24426;DHT22;12611;44.446;26.000;2023-07-16T12:41:17;35.20;48.60
24426;DHT22;12611;44.446;26.000;2023-07-16T12:43:46;35.30;49.20
24426;DHT22;12611;44.446;26.000;2023-07-16T12:46:15;35.40;49.10
24426;DHT22;12611;44.446;26.000;2023-07-16T12:48:45;35.40;49.10
24426;DHT22;12611;44.446;26.000;2023-07-16T12:51:15;35.50;49.00
24426;DHT22;12611;44.446;26.000;2023-07-16T12:53:44;35.50;48.70
24426;DHT22;12611;44.446;26.000;2023-07-16T12:56:12;35.60;48.90
24426;DHT22;12611;44.446;26.000;2023-07-16T12:58:41;35.70;48.90
24426;DHT22;12611;44.446;26.000;2023-07-16T13:01:10;35.70;49.00
24426;DHT22;12611;44.446;26.000;2023-07-16T13:03:39;35.70;49.00
24426;DHT22;12611;44.446;26.000;2023-07-16T13:06:08;35.70;48.90
24426;DHT22;12611;44.446;26.000;2023-07-16T13:08:37;35.80;48.60
24426;DHT22;12611;44.446;26.000;2023-07-16T13:11:06;35.80;47.60
24426;DHT22;12611;44.446;26.000;2023-07-16T13:13:34;35.80;47.70
24426;DHT22;12611;44.446;26.000;2023-07-16T13:16:03;35.80;47.00
24426;DHT22;12611;44.446;26.000;2023-07-16T13:18:32;35.80;47.20
24426;DHT22;12611;44.446;26.000;2023-07-16T13:21:01;35.80;47.10
24426;DHT22;12611;44.446;26.000;2023-07-16T13:23:30;35.80;47.00
24426;DHT22;12611;44.446;26.000;2023-07-16T13:26:00;35.90;47.00
24426;DHT22;12611;44.446;26.000;2023-07-16T13:28:29;35.90;46.60
24426;DHT22;12611;44.446;26.000;2023-07-16T13:30:57;35.90;46.80
24426;DHT22;12611;44.446;26.000;2023-07-16T13:33:26;35.90;47.10
24426;DHT22;12611;44.446;26.000;2023-07-16T13:35:54;35.90;46.90
24426;DHT22;12611;44.446;26.000;2023-07-16T13:39:22;35.90;46.70
24426;DHT22;12611;44.446;26.000;2023-07-16T13:42:15;36.00;46.90
24426;DHT22;12611;44.446;26.000;2023-07-16T13:44:50;36.10;47.10
24426;DHT22;12611;44.446;26.000;2023-07-16T13:47:21;36.00;47.10
24426;DHT22;12611;44.446;26.000;2023-07-16T13:49:50;36.00;47.10
24426;DHT22;12611;44.446;26.000;2023-07-16T13:53:24;36.10;46.80
24426;DHT22;12611;44.446;26.000;2023-07-16T13:57:57;36.10;46.40
24426;DHT22;12611;44.446;26.000;2023-07-16T14:00:34;36.00;45.80
24426;DHT22;12611;44.446;26.000;2023-07-16T14:03:05;36.10;46.00
24426;DHT22;12611;44.446;26.000;2023-07-16T14:06:05;36.10;45.90
24426;DHT22;12611;44.446;26.000;2023-07-16T14:08:35;36.10;45.10
24426;DHT22;12611;44.446;26.000;2023-07-16T14:11:03;36.20;45.60
24426;DHT22;12611;44.446;26.000;2023-07-16T14:13:32;36.30;45.70
24426;DHT22;12611;44.446;26.000;2023-07-16T14:16:02;36.30;45.80
24426;DHT22;12611;44.446;26.000;2023-07-16T14:18:30;36.40;45.80
24426;DHT22;12611;44.446;26.000;2023-07-16T14:20:59;36.50;45.80
24426;DHT22;12611;44.446;26.000;2023-07-16T14:23:29;36.60;45.90
24426;DHT22;12611;44.446;26.000;2023-07-16T14:25:58;36.90;45.80
24426;DHT22;12611;44.446;26.000;2023-07-16T14:28:28;37.20;44.90
24426;DHT22;12611;44.446;26.000;2023-07-16T14:30:56;37.40;44.70
24426;DHT22;12611;44.446;26.000;2023-07-16T14:33:26;37.80;45.10
24426;DHT22;12611;44.446;26.000;2023-07-16T14:35:55;38.20;45.10
24426;DHT22;12611;44.446;26.000;2023-07-16T14:38:24;38.40;45.20
24426;DHT22;12611;44.446;26.000;2023-07-16T14:40:52;38.50;44.70
24426;DHT22;12611;44.446;26.000;2023-07-16T14:43:21;38.60;44.40
24426;DHT22;12611;44.446;26.000;2023-07-16T14:45:49;38.50;44.10
24426;DHT22;12611;44.446;26.000;2023-07-16T14:48:19;38.50;44.40
24426;DHT22;12611;44.446;26.000;2023-07-16T14:50:51;38.30;43.80
24426;DHT22;12611;44.446;26.000;2023-07-16T14:53:19;38.20;43.30
24426;DHT22;12611;44.446;26.000;2023-07-16T14:55:48;38.00;43.40
24426;DHT22;12611;44.446;26.000;2023-07-16T14:58:18;38.00;43.70
24426;DHT22;12611;44.446;26.000;2023-07-16T15:00:47;37.80;43.40
24426;DHT22;12611;44.446;26.000;2023-07-16T15:03:16;37.70;43.50
24426;DHT22;12611;44.446;26.000;2023-07-16T15:05:44;37.50;43.40
24426;DHT22;12611;44.446;26.000;2023-07-16T15:08:15;37.40;43.50
24426;DHT22;12611;44.446;26.000;2023-07-16T15:10:45;37.30;43.90
24426;DHT22;12611;44.446;26.000;2023-07-16T15:13:14;37.30;44.00
24426;DHT22;12611;44.446;26.000;2023-07-16T15:15:47;37.20;44.00
24426;DHT22;12611;44.446;26.000;2023-07-16T15:18:16;37.00;43.90
24426;DHT22;12611;44.446;26.000;2023-07-16T15:20:44;36.90;44.00
24426;DHT22;12611;44.446;26.000;2023-07-16T15:23:17;36.80;44.20
24426;DHT22;12611;44.446;26.000;2023-07-16T15:25:46;36.80;44.60
24426;DHT22;12611;44.446;26.000;2023-07-16T15:28:29;36.70;44.70
24426;DHT22;12611;44.446;26.000;2023-07-16T15:31:27;36.70;44.70
24426;DHT22;12611;44.446;26.000;2023-07-16T15:33:56;36.70;44.40
24426;DHT22;12611;44.446;26.000;2023-07-16T15:36:25;36.70;44.40